createdAt,value
2023-01-22T00:00:30.341Z,8.68
2023-01-22T00:05:32.167Z,11.23
2023-01-22T00:10:34.001Z,9.30
2023-01-22T00:15:38.921Z,8.30
2023-01-22T00:20:41.763Z,11.85
2023-01-22T00:25:44.023Z,9.43
2023-01-22T00:30:45.935Z,8.82
2023-01-22T00:35:47.742Z,9.00
2023-01-22T00:40:49.573Z,5.82
2023-01-22T00:45:51.424Z,9.15
2023-01-22T00:50:55.343Z,8.70
2023-01-22T00:55:59.602Z,19.67
2023-01-22T01:01:03.023Z,11.70
2023-01-22T01:06:13.788Z,10.30
2023-01-22T01:11:22.141Z,9.63
2023-01-22T01:16:30.008Z,39.15
2023-01-22T01:21:34.524Z,19.73
2023-01-22T01:26:37.149Z,23.73
2023-01-22T01:31:39.328Z,16.10
2023-01-22T01:36:50.221Z,249.68
2023-01-22T01:41:53.318Z,59.80
2023-01-22T01:47:01.293Z,29.73
2023-01-22T01:52:09.468Z,14.18
2023-01-22T02:02:20.918Z,7.95
2023-01-22T02:07:23.928Z,7.65
2023-01-22T02:12:25.886Z,35.38
2023-01-22T02:17:28.055Z,34.35
2023-01-22T02:22:32.483Z,54.30
2023-01-22T02:27:35.799Z,62.05
2023-01-22T02:32:40.330Z,10.32
2023-01-22T02:37:42.241Z,11.45
2023-01-22T02:42:44.333Z,10.43
2023-01-22T02:47:46.925Z,24.05
2023-01-22T02:52:48.781Z,15.52
2023-01-22T02:57:50.678Z,11.82
2023-01-22T03:02:52.537Z,15.13
2023-01-22T03:07:54.435Z,16.27
2023-01-22T03:13:14.952Z,9.45
2023-01-22T03:18:36.835Z,10.68
2023-01-22T03:23:38.974Z,13.85
2023-01-22T03:28:40.982Z,15.88
2023-01-22T03:33:43.762Z,11.32
2023-01-22T03:38:46.779Z,14.27
2023-01-22T03:43:53.785Z,14.57
2023-01-22T03:49:00.889Z,26.77
2023-01-22T03:54:02.801Z,23.05
2023-01-22T03:59:04.934Z,13.95
2023-01-22T04:04:08.330Z,15.05
2023-01-22T04:09:10.214Z,18.42
2023-01-22T04:14:16.358Z,29.98
2023-01-22T04:19:33.186Z,19.70
2023-01-22T04:24:37.824Z,18.88
2023-01-22T04:29:40.818Z,19.92
2023-01-22T04:34:44.637Z,16.95
2023-01-22T04:39:58.910Z,20.80
2023-01-22T04:45:00.869Z,24.10
2023-01-22T04:50:05.563Z,24.20
2023-01-22T04:55:09.721Z,18.05
2023-01-22T05:00:21.470Z,22.15
2023-01-22T05:05:23.951Z,31.10
2023-01-22T05:10:26.869Z,20.63
2023-01-22T05:15:29.022Z,18.10
2023-01-22T05:20:34.219Z,18.27
2023-01-22T05:25:37.006Z,39.45
2023-01-22T05:30:40.213Z,46.60
2023-01-22T05:36:02.681Z,43.42
2023-01-22T05:41:04.978Z,25.48
2023-01-22T05:46:11.515Z,30.10
2023-01-22T05:51:16.568Z,52.67
2023-01-22T05:56:18.905Z,98.68
2023-01-22T06:01:21.566Z,29.90
2023-01-22T06:06:26.671Z,71.85
2023-01-22T06:11:30.500Z,82.95
2023-01-22T06:16:33.112Z,144.43
2023-01-22T06:21:43.827Z,49.53
2023-01-22T06:26:46.333Z,157.32
2023-01-22T06:31:49.996Z,345.05
2023-01-22T06:36:54.156Z,118.28
2023-01-22T06:41:58.217Z,212.23
2023-01-22T06:47:00.468Z,235.18
2023-01-22T06:52:07.171Z,35.33
2023-01-22T06:57:09.059Z,386.30
2023-01-22T07:02:17.180Z,378.30
2023-01-22T07:07:19.002Z,125.30
2023-01-22T07:12:20.838Z,92.05
2023-01-22T07:17:22.661Z,96.50
2023-01-22T07:22:24.534Z,103.85
2023-01-22T07:27:27.895Z,50.22
2023-01-22T07:32:29.790Z,38.53
2023-01-22T07:37:31.633Z,176.43
2023-01-22T07:42:33.424Z,227.75
2023-01-22T07:47:35.185Z,259.27
2023-01-22T07:52:36.981Z,97.22
2023-01-22T07:57:38.802Z,164.05
2023-01-22T08:02:42.230Z,219.95
2023-01-22T08:07:44.233Z,99.90
2023-01-22T08:12:46.776Z,146.13
2023-01-22T08:17:53.326Z,43.55
2023-01-22T08:23:01.996Z,191.98
2023-01-22T08:28:05.659Z,110.72
2023-01-22T08:33:07.622Z,42.78
2023-01-22T08:38:09.408Z,158.75
2023-01-22T08:43:11.206Z,125.38
2023-01-22T08:48:13.062Z,356.00
2023-01-22T08:53:14.831Z,144.63
2023-01-22T08:58:16.592Z,183.60
2023-01-22T09:03:18.459Z,501.23
2023-01-22T09:08:20.478Z,316.27
2023-01-22T09:13:22.336Z,99.25
2023-01-22T09:18:24.288Z,34.75
2023-01-22T09:23:26.102Z,336.45
2023-01-22T09:28:27.880Z,198.13
2023-01-22T09:33:29.680Z,357.35
2023-01-22T09:38:31.441Z,55.38
2023-01-22T09:43:37.235Z,31.55
2023-01-22T09:48:47.047Z,37.78
2023-01-22T09:54:01.272Z,53.53
2023-01-22T09:59:05.994Z,57.92
2023-01-22T10:04:25.278Z,48.65
2023-01-22T10:09:31.148Z,28.13
2023-01-22T10:14:33.036Z,26.10
2023-01-22T10:19:45.639Z,66.97
2023-01-22T10:24:47.451Z,26.02
2023-01-22T10:30:01.228Z,30.95
2023-01-22T10:35:11.907Z,32.30
2023-01-22T10:40:38.165Z,33.70
2023-01-22T10:45:55.104Z,30.77
2023-01-22T10:51:12.883Z,34.38
2023-01-22T10:56:27.517Z,32.45
2023-01-22T11:01:36.000Z,35.38
2023-01-22T11:06:42.580Z,35.05
2023-01-22T11:11:55.093Z,35.28
2023-01-22T11:17:03.331Z,33.65
2023-01-22T11:22:20.842Z,29.23
2023-01-22T11:27:55.106Z,30.77
2023-01-22T11:33:06.327Z,28.42
2023-01-22T11:38:10.941Z,29.20
2023-01-22T11:43:18.987Z,27.02
2023-01-22T11:48:42.605Z,27.33
2023-01-22T11:53:58.247Z,22.70
2023-01-22T11:59:08.886Z,31.65
2023-01-22T12:04:40.229Z,30.27
2023-01-22T12:09:47.674Z,24.42
2023-01-22T12:15:24.931Z,30.95
2023-01-22T12:20:40.213Z,39.15
2023-01-22T12:25:48.805Z,23.95
2023-01-22T12:31:00.820Z,34.28
2023-01-22T12:36:05.550Z,32.47
2023-01-22T12:41:25.512Z,28.38
2023-01-22T12:51:47.849Z,32.03
2023-01-22T12:56:51.380Z,30.30
2023-01-22T13:02:00.180Z,36.78
2023-01-22T13:07:16.931Z,41.03
2023-01-22T13:12:27.162Z,34.30
2023-01-22T13:17:30.643Z,32.25
2023-01-22T13:22:34.048Z,34.70
2023-01-22T13:27:37.510Z,29.65
2023-01-22T13:32:39.450Z,31.42
2023-01-22T13:37:44.258Z,30.30
2023-01-22T13:42:47.051Z,32.65
2023-01-22T13:47:50.817Z,33.15
2023-01-22T13:52:52.920Z,33.80
2023-01-22T13:57:57.265Z,30.60
2023-01-22T14:03:00.138Z,25.00
2023-01-22T14:08:08.150Z,28.02
2023-01-22T14:13:12.244Z,27.92
2023-01-22T14:18:16.832Z,29.05
2023-01-22T14:23:18.721Z,32.58
2023-01-22T14:28:22.430Z,25.05
2023-01-22T14:33:31.106Z,25.55
2023-01-22T14:38:33.111Z,26.63
2023-01-22T14:43:35.725Z,23.95
2023-01-22T14:48:38.675Z,31.13
2023-01-22T14:53:40.593Z,24.98
2023-01-22T14:58:42.482Z,27.30
2023-01-22T15:03:44.349Z,28.15
2023-01-22T15:08:46.266Z,21.70
2023-01-22T15:13:49.547Z,24.45
2023-01-22T15:18:54.717Z,18.98
2023-01-22T15:23:56.582Z,22.23
2023-01-22T15:28:58.429Z,16.75
2023-01-22T15:34:02.149Z,21.35
2023-01-22T15:39:04.112Z,26.50
2023-01-22T15:44:07.161Z,26.67
2023-01-22T15:49:10.870Z,20.67
2023-01-22T15:54:15.667Z,25.13
2023-01-22T15:59:18.140Z,30.60
2023-01-22T16:04:20.404Z,15.60
2023-01-22T16:09:22.512Z,14.77
2023-01-22T16:14:24.623Z,22.63
2023-01-22T16:19:27.027Z,20.23
2023-01-22T16:24:29.404Z,34.17
2023-01-22T16:29:31.757Z,40.92
2023-01-22T16:34:33.839Z,18.88
2023-01-22T16:39:36.922Z,14.98
2023-01-22T16:44:38.791Z,16.20
2023-01-22T16:49:40.693Z,18.52
2023-01-22T16:54:42.846Z,16.42
2023-01-22T16:59:45.053Z,19.58
2023-01-22T17:04:46.984Z,19.58
2023-01-22T17:09:48.922Z,20.67
2023-01-22T17:14:53.077Z,18.58
2023-01-22T17:19:55.067Z,16.75
2023-01-22T17:24:56.872Z,26.45
2023-01-22T17:29:58.789Z,19.98
2023-01-22T17:35:01.006Z,20.33
2023-01-22T17:40:03.713Z,26.50
2023-01-22T17:45:06.114Z,23.83
2023-01-22T17:50:08.863Z,19.48
2023-01-22T17:55:10.749Z,22.30
2023-01-22T18:00:13.105Z,24.20
2023-01-22T18:05:14.939Z,24.30
2023-01-22T18:10:17.481Z,25.70
2023-01-22T18:15:19.552Z,23.60
2023-01-22T18:20:21.741Z,23.77
2023-01-22T18:25:23.590Z,21.25
2023-01-22T18:30:26.852Z,22.73
2023-01-22T18:35:29.561Z,23.23
2023-01-22T18:40:32.063Z,20.15
2023-01-22T18:45:40.300Z,19.33
2023-01-22T18:50:42.513Z,32.33
2023-01-22T18:55:44.397Z,24.67
2023-01-22T19:00:46.237Z,19.73
2023-01-22T19:05:48.081Z,21.20
2023-01-22T19:10:50.269Z,24.73
2023-01-22T19:15:52.571Z,34.03
2023-01-22T19:20:54.731Z,23.52
2023-01-22T19:26:23.894Z,25.25
2023-01-22T19:31:27.617Z,33.25
2023-01-22T19:36:32.247Z,32.22
2023-01-22T19:41:34.125Z,17.45
2023-01-22T19:46:40.289Z,18.23
2023-01-22T19:51:42.277Z,17.38
2023-01-22T19:56:45.845Z,20.55
2023-01-22T20:01:48.952Z,21.85
2023-01-22T20:06:55.858Z,24.30
2023-01-22T20:11:58.740Z,21.23
2023-01-22T20:17:02.042Z,24.08
2023-01-22T20:22:07.058Z,22.15
2023-01-22T20:27:09.510Z,19.02
2023-01-22T20:32:11.432Z,34.72
2023-01-22T20:37:13.248Z,18.63
2023-01-22T20:42:15.123Z,22.13
2023-01-22T20:47:17.245Z,21.60
2023-01-22T20:52:20.058Z,21.10
2023-01-22T20:57:22.112Z,15.13
2023-01-22T21:02:24.172Z,21.35
2023-01-22T21:07:26.025Z,25.92
2023-01-22T21:12:27.870Z,22.83
2023-01-22T21:17:31.287Z,24.40
2023-01-22T21:22:33.300Z,20.95
2023-01-22T21:27:35.202Z,21.55
2023-01-22T21:32:37.074Z,21.65
2023-01-22T21:37:38.912Z,20.85
2023-01-22T21:43:00.222Z,24.05
2023-01-22T21:48:02.067Z,25.90
2023-01-22T21:53:03.906Z,23.75
2023-01-22T21:58:08.549Z,22.85
2023-01-22T22:03:10.784Z,27.05
2023-01-22T22:08:12.629Z,20.55
2023-01-22T22:13:14.457Z,26.95
2023-01-22T22:18:16.281Z,23.67
2023-01-22T22:23:18.155Z,26.00
2023-01-22T22:28:19.997Z,25.95
2023-01-22T22:33:21.809Z,31.40
2023-01-22T22:38:23.666Z,23.88
2023-01-22T22:43:25.790Z,23.05
2023-01-22T22:48:27.885Z,28.30
2023-01-22T22:53:29.770Z,24.48
2023-01-22T22:58:32.223Z,27.73
2023-01-22T23:03:37.109Z,26.77
2023-01-22T23:08:40.682Z,27.08
2023-01-22T23:13:48.729Z,34.80
2023-01-22T23:18:51.972Z,24.50
2023-01-22T23:23:54.941Z,28.50
2023-01-22T23:29:00.615Z,27.63
2023-01-22T23:34:04.679Z,33.20
2023-01-22T23:39:06.611Z,33.20
2023-01-22T23:44:08.541Z,27.95
2023-01-22T23:49:10.854Z,42.30
2023-01-22T23:54:13.069Z,109.35
2023-01-22T23:59:14.922Z,147.35
